Time;durP1;ratioP1;P1;durP2;ratioP2;P2;SDS_P1;SDS_P2;PMS_P1;PMS_P2;Temp;Humidity;BMP_temperature;BMP_pressure;BME280_temperature;BME280_humidity;BME280_pressure;Samples;Min_cycle;Max_cycle;Signal;HPM_P1;HPM_P2
2023/06/21 00:02:24;;;;;;;;;;;;;;;17.42;100.00;101216.63;5105807;28;20350;-42
2023/06/21 00:04:51;;;;;;;;;;;;;;;17.43;100.00;101219.22;5090192;28;20390;-44
2023/06/21 00:07:22;;;;;;;;;;;;;;;17.43;100.00;101220.97;5102824;28;20393;-43
2023/06/21 00:09:47;;;;;;;;;;;;;;;17.40;100.00;101226.13;5094456;28;19917;-47
2023/06/21 00:12:12;;;;;;;;;;;;;;;17.42;100.00;101227.88;5099175;28;19923;-45
2023/06/21 00:14:37;;;;;;;;;;;;;;;17.43;100.00;101224.44;5078992;28;19920;-45
2023/06/21 00:17:03;;;;;;;;;;;;;;;17.45;100.00;101229.63;5102800;28;20398;-45
2023/06/21 00:19:28;;;;;;;;;;;;;;;17.43;100.00;101234.81;5090795;28;20313;-44
2023/06/21 00:21:53;;;;;;;;;;;;;;;17.45;100.00;101239.16;5108415;28;19946;-43
2023/06/21 00:24:18;;;;;;;;;;;;;;;17.42;100.00;101242.63;5111195;28;19920;-43
2023/06/21 00:26:44;;;;;;;;;;;;;;;17.42;100.00;101251.28;5107144;27;20004;-44
2023/06/21 00:29:09;;;;;;;;;;;;;;;17.43;100.00;101257.34;5111867;28;19912;-45
2023/06/21 00:31:34;;;;;;;;;;;;;;;17.42;100.00;101247.81;5111037;28;19916;-46
2023/06/21 00:34:00;;;;;;;;;;;;;;;17.40;100.00;101244.31;5112110;28;19915;-44
2023/06/21 00:36:25;;;;;;;;;;;;;;;17.43;100.00;101246.97;5111534;28;20011;-47
2023/06/21 00:38:50;;;;;;;;;;;;;;;17.41;100.00;101244.34;5110973;28;19920;-44
2023/06/21 00:41:15;;;;;;;;;;;;;;;17.40;100.00;101245.19;5111640;28;20385;-44
2023/06/21 00:43:41;;;;;;;;;;;;;;;17.40;100.00;101241.72;5110614;28;19916;-43
2023/06/21 00:46:06;;;;;;;;;;;;;;;17.40;100.00;101253.00;5111080;28;19919;-42
2023/06/21 00:48:31;;;;;;;;;;;;;;;17.43;100.00;101267.75;5110612;28;19998;-44
2023/06/21 00:50:57;;;;;;;;;;;;;;;17.40;100.00;101252.13;5111767;28;19923;-46
2023/06/21 00:53:23;;;;;;;;;;;;;;;17.40;100.00;101246.91;5111286;28;20293;-44
2023/06/21 00:55:48;;;;;;;;;;;;;;;17.39;100.00;101253.00;5110455;28;19912;-43
2023/06/21 00:58:13;;;;;;;;;;;;;;;17.38;100.00;101256.44;5101053;28;19921;-43
2023/06/21 01:00:39;;;;;;;;;;;;;;;17.37;100.00;101254.72;5110808;27;20072;-43
2023/06/21 01:03:04;;;;;;;;;;;;;;;17.35;100.00;101264.22;5101557;28;19923;-44
2023/06/21 01:05:30;;;;;;;;;;;;;;;17.35;100.00;101265.13;5107639;28;19961;-43
2023/06/21 01:08:16;;;;;;;;;;;;;;;17.34;100.00;101262.47;5104352;28;20418;-44
2023/06/21 01:10:57;;;;;;;;;;;;;;;17.34;100.00;101267.69;5100853;28;19919;-45
2023/06/21 01:13:23;;;;;;;;;;;;;;;17.32;100.00;101265.06;5102090;28;19935;-43
2023/06/21 01:15:54;;;;;;;;;;;;;;;17.33;100.00;101265.94;5099645;28;20293;-43
2023/06/21 01:18:20;;;;;;;;;;;;;;;17.32;100.00;101274.59;5098112;28;19916;-44
2023/06/21 01:20:49;;;;;;;;;;;;;;;17.30;100.00;101271.13;5079749;28;20015;-44
2023/06/21 01:23:17;;;;;;;;;;;;;;;17.25;100.00;101267.63;5116498;28;19941;-43
2023/06/21 01:25:46;;;;;;;;;;;;;;;17.19;100.00;101265.00;5108853;28;20388;-44
2023/06/21 01:28:43;;;;;;;;;;;;;;;17.24;100.00;101264.16;5125398;28;19918;-47
2023/06/21 01:31:09;;;;;;;;;;;;;;;17.23;100.00;101261.53;5081572;28;19923;-44
2023/06/21 01:33:35;;;;;;;;;;;;;;;17.27;100.00;101265.91;5096517;28;19963;-45
2023/06/21 01:36:03;;;;;;;;;;;;;;;17.26;100.00;101269.38;5106923;28;19973;-51
2023/06/21 01:38:29;;;;;;;;;;;;;;;17.27;100.00;101271.09;5110076;28;19955;-51
2023/06/21 01:40:54;;;;;;;;;;;;;;;17.26;100.00;101267.63;5110193;28;20016;-52
2023/06/21 01:43:20;;;;;;;;;;;;;;;17.25;100.00;101267.63;5098987;28;19924;-52
2023/06/21 01:45:46;;;;;;;;;;;;;;;17.23;100.00;101266.72;5106806;28;20365;-52
2023/06/21 01:48:11;;;;;;;;;;;;;;;17.22;100.00;101281.44;5105293;28;20333;-53
2023/06/21 01:50:37;;;;;;;;;;;;;;;17.22;100.00;101280.59;5108892;28;19915;-52
2023/06/21 01:53:04;;;;;;;;;;;;;;;17.21;100.00;101273.66;5101385;28;19919;-54
2023/06/21 01:55:30;;;;;;;;;;;;;;;17.19;100.00;101275.38;5088439;28;19916;-52
2023/06/21 01:57:56;;;;;;;;;;;;;;;17.18;100.00;101282.31;5097666;28;19948;-53
2023/06/21 02:00:21;;;;;;;;;;;;;;;17.19;100.00;101288.38;5106894;28;19920;-53
2023/06/21 02:02:49;;;;;;;;;;;;;;;17.16;100.00;101279.69;5106526;28;19939;-52
2023/06/21 02:05:16;;;;;;;;;;;;;;;17.18;100.00;101284.91;5096630;28;19912;-53
2023/06/21 02:07:42;;;;;;;;;;;;;;;17.18;100.00;101291.84;5108629;28;19930;-51
2023/06/21 02:10:09;;;;;;;;;;;;;;;17.15;100.00;101298.72;5113001;28;19999;-52
2023/06/21 02:12:34;;;;;;;;;;;;;;;17.15;100.00;101298.72;5118165;28;19923;-51
2023/06/21 02:15:00;;;;;;;;;;;;;;;17.16;100.00;101297.88;5103955;28;19912;-54
2023/06/21 02:17:25;;;;;;;;;;;;;;;17.14;100.00;101302.19;5110739;27;20378;-52
2023/06/21 02:19:50;;;;;;;;;;;;;;;17.11;100.00;101299.59;5099827;28;20231;-54
2023/06/21 02:22:16;;;;;;;;;;;;;;;17.09;100.00;101292.63;5109098;27;19939;-54
2023/06/21 02:24:41;;;;;;;;;;;;;;;17.06;100.00;101303.00;5121947;27;20179;-51
2023/06/21 02:27:06;;;;;;;;;;;;;;;17.03;100.00;101309.03;5118181;27;20332;-52
2023/06/21 02:29:32;;;;;;;;;;;;;;;17.02;100.00;101307.28;5103190;27;20362;-52
2023/06/21 02:31:57;;;;;;;;;;;;;;;17.00;100.00;101316.81;5116660;27;19938;-53
2023/06/21 02:34:22;;;;;;;;;;;;;;;17.00;100.00;101319.41;5100983;27;20003;-53
2023/06/21 02:36:53;;;;;;;;;;;;;;;16.98;100.00;101328.88;5111085;27;19959;-54
2023/06/21 02:39:20;;;;;;;;;;;;;;;17.00;100.00;101323.72;5100120;28;20376;-54
2023/06/21 02:41:45;;;;;;;;;;;;;;;16.99;100.00;101322.88;5118543;27;19939;-53
2023/06/21 02:44:11;;;;;;;;;;;;;;;17.01;100.00;101322.88;5115500;27;19919;-54
2023/06/21 02:46:36;;;;;;;;;;;;;;;17.03;100.00;101328.94;5100515;28;19963;-52
2023/06/21 02:49:01;;;;;;;;;;;;;;;16.99;100.00;101334.97;5096673;28;19920;-53
2023/06/21 02:51:26;;;;;;;;;;;;;;;16.97;100.00;101332.34;5101911;28;19916;-54
2023/06/21 02:53:52;;;;;;;;;;;;;;;16.93;100.00;101340.09;5097390;28;19916;-52
2023/06/21 02:56:17;;;;;;;;;;;;;;;16.95;100.00;101341.88;5105701;28;20417;-53
2023/06/21 02:58:43;;;;;;;;;;;;;;;16.96;100.00;101340.13;5123784;27;19920;-53
2023/06/21 03:01:08;;;;;;;;;;;;;;;16.95;100.00;101346.19;5119423;27;20293;-54
2023/06/21 03:03:33;;;;;;;;;;;;;;;16.93;100.00;101347.88;5119097;27;19962;-54
2023/06/21 03:05:58;;;;;;;;;;;;;;;16.85;100.00;101353.00;5111776;27;20251;-53
2023/06/21 03:08:24;;;;;;;;;;;;;;;17.00;100.00;101360.97;5093763;28;20025;-54
2023/06/21 03:10:50;;;;;;;;;;;;;;;17.05;100.00;101361.03;5117872;27;19923;-54
2023/06/21 03:13:15;;;;;;;;;;;;;;;17.05;100.00;101359.28;5112646;28;19916;-54
2023/06/21 03:15:40;;;;;;;;;;;;;;;17.08;100.00;101369.69;5082862;28;19919;-55
2023/06/21 03:18:05;;;;;;;;;;;;;;;17.08;100.00;101381.81;5116225;27;19924;-53
2023/06/21 03:20:31;;;;;;;;;;;;;;;17.06;100.00;101384.41;5115144;27;19920;-54
2023/06/21 03:22:56;;;;;;;;;;;;;;;17.07;100.00;101380.09;5096571;27;20342;-54
2023/06/21 03:25:22;;;;;;;;;;;;;;;17.09;100.00;101387.03;5114375;27;20313;-53
2023/06/21 03:27:47;;;;;;;;;;;;;;;17.11;100.00;101390.53;5090100;27;19920;-51
2023/06/21 03:30:12;;;;;;;;;;;;;;;17.13;100.00;101393.13;5122208;27;19947;-44
2023/06/21 03:32:46;;;;;;;;;;;;;;;17.14;100.00;101398.34;5115510;27;19916;-43
2023/06/21 03:35:12;;;;;;;;;;;;;;;17.13;100.00;101391.41;5118732;27;19926;-44
2023/06/21 03:37:38;;;;;;;;;;;;;;;17.15;100.00;101383.63;5122772;27;19927;-45
2023/06/21 03:40:04;;;;;;;;;;;;;;;17.18;100.00;101380.19;5118724;27;20378;-46
2023/06/21 03:42:29;;;;;;;;;;;;;;;17.18;100.00;101388.00;5116530;27;20435;-48
2023/06/21 03:44:54;;;;;;;;;;;;;;;17.19;100.00;101388.00;5116999;27;20442;-45
2023/06/21 03:47:20;;;;;;;;;;;;;;;17.20;100.00;101383.66;5118327;27;20404;-44
2023/06/21 03:49:45;;;;;;;;;;;;;;;17.18;100.00;101386.25;5111623;28;20297;-43
2023/06/21 03:52:11;;;;;;;;;;;;;;;17.18;100.00;101386.25;5118038;27;19915;-43
2023/06/21 03:54:36;;;;;;;;;;;;;;;17.21;100.00;101388.88;5110240;28;19964;-44
2023/06/21 03:57:01;;;;;;;;;;;;;;;17.27;100.00;101396.72;5117616;27;19920;-44
2023/06/21 03:59:26;;;;;;;;;;;;;;;17.31;100.00;101405.44;5113977;27;19994;-44
2023/06/21 04:01:52;;;;;;;;;;;;;;;17.33;100.00;101393.31;5114481;27;19916;-47
2023/06/21 04:04:17;;;;;;;;;;;;;;;17.37;100.00;101406.34;5115792;27;19926;-44
2023/06/21 04:06:43;;;;;;;;;;;;;;;17.40;100.00;101408.09;5120412;27;19923;-45
2023/06/21 04:09:08;;;;;;;;;;;;;;;17.43;100.00;101409.00;5109325;28;20002;-44
2023/06/21 04:11:33;;;;;;;;;;;;;;;17.48;100.00;101406.47;5111864;27;20492;-44
2023/06/21 04:13:58;;;;;;;;;;;;;;;17.51;100.00;101410.78;5099522;28;19923;-44
2023/06/21 04:16:23;;;;;;;;;;;;;;;17.54;100.00;101409.09;5077261;28;19930;-45
2023/06/21 04:18:49;;;;;;;;;;;;;;;17.57;100.00;101409.13;5096940;28;20031;-44
2023/06/21 04:21:14;;;;;;;;;;;;;;;17.64;100.00;101413.50;5113326;27;19924;-44
2023/06/21 04:23:39;;;;;;;;;;;;;;;17.66;100.00;101427.41;5115202;27;19957;-46
2023/06/21 04:26:06;;;;;;;;;;;;;;;17.70;100.00;101434.34;5114351;27;20394;-44
2023/06/21 04:28:31;;;;;;;;;;;;;;;17.67;100.00;101428.28;5106061;28;20003;-45
2023/06/21 04:30:58;;;;;;;;;;;;;;;17.72;100.00;101430.94;5114927;27;19955;-44
2023/06/21 04:33:23;;;;;;;;;;;;;;;17.73;100.00;101430.09;5118510;27;19921;-44
2023/06/21 04:35:48;;;;;;;;;;;;;;;17.78;100.00;101429.25;5118168;27;19915;-46
2023/06/21 04:38:13;;;;;;;;;;;;;;;17.83;100.00;101429.28;5102040;28;20294;-47
2023/06/21 04:40:39;;;;;;;;;;;;;;;17.96;100.00;101428.53;5106918;28;19923;-45
2023/06/21 04:43:05;;;;;;;;;;;;;;;18.18;100.00;101435.59;5106897;28;20507;-43
2023/06/21 04:45:31;;;;;;;;;;;;;;;18.38;100.00;101438.31;5117380;27;19965;-46
2023/06/21 04:47:57;;;;;;;;;;;;;;;18.51;100.00;101441.84;5117186;27;20683;-45
2023/06/21 04:50:23;;;;;;;;;;;;;;;18.54;100.00;101436.66;5114313;27;20400;-45
2023/06/21 04:52:49;;;;;;;;;;;;;;;18.69;100.00;101443.69;5114322;27;19989;-44
2023/06/21 04:55:17;;;;;;;;;;;;;;;18.85;100.00;101442.00;5113344;27;20488;-45
2023/06/21 04:57:43;;;;;;;;;;;;;;;18.91;100.00;101442.03;5113556;27;19916;-47
2023/06/21 05:00:09;;;;;;;;;;;;;;;18.90;100.00;101443.75;5110223;28;20007;-46
2023/06/21 05:02:34;;;;;;;;;;;;;;;19.01;100.00;101439.44;5116567;27;19943;-45
2023/06/21 05:04:59;;;;;;;;;;;;;;;19.14;100.00;101439.47;5114899;28;19916;-47
2023/06/21 05:07:25;;;;;;;;;;;;;;;19.36;100.00;101448.22;5105324;28;19935;-44
2023/06/21 05:09:50;;;;;;;;;;;;;;;19.54;100.00;101445.63;5110501;28;20245;-46
2023/06/21 05:12:15;;;;;;;;;;;;;;;19.63;100.00;101456.06;5110859;28;19915;-48
2023/06/21 05:14:40;;;;;;;;;;;;;;;19.79;100.00;101463.03;5111347;28;19930;-46
2023/06/21 05:17:06;;;;;;;;;;;;;;;20.06;100.00;101466.50;5105553;28;20445;-44
2023/06/21 05:19:31;;;;;;;;;;;;;;;20.19;100.00;101464.72;5094780;28;20426;-45
2023/06/21 05:21:56;;;;;;;;;;;;;;;20.39;100.00;101465.56;5115490;28;19950;-46
2023/06/21 05:24:22;;;;;;;;;;;;;;;20.61;100.00;101476.81;5084882;28;19916;-45
2023/06/21 05:26:47;;;;;;;;;;;;;;;20.74;100.00;101480.25;5116962;28;19923;-45
2023/06/21 05:29:12;;;;;;;;;;;;;;;20.65;100.00;101482.94;5116988;28;19926;-46
2023/06/21 05:31:40;;;;;;;;;;;;;;;20.48;100.00;101485.59;5122680;28;19911;-44
2023/06/21 05:34:06;;;;;;;;;;;;;;;20.66;100.00;101485.53;5119250;28;19964;-44
2023/06/21 05:36:31;;;;;;;;;;;;;;;20.67;100.00;101487.25;5119085;28;19923;-44
2023/06/21 05:38:56;;;;;;;;;;;;;;;20.49;100.00;101489.94;5120102;28;19920;-44
2023/06/21 05:41:22;;;;;;;;;;;;;;;20.44;100.00;101479.44;5120702;28;19916;-44
2023/06/21 05:43:47;;;;;;;;;;;;;;;20.68;100.00;101480.28;5115936;28;19991;-44
2023/06/21 05:46:12;;;;;;;;;;;;;;;21.03;100.00;101485.38;5114842;28;19920;-44
2023/06/21 05:48:37;;;;;;;;;;;;;;;21.49;100.00;101488.59;5108107;28;19923;-44
2023/06/21 05:51:03;;;;;;;;;;;;;;;21.90;100.00;101506.63;5109068;28;19923;-47
2023/06/21 05:53:28;;;;;;;;;;;;;;;22.11;100.00;101507.31;5109463;28;19922;-43
2023/06/21 05:55:54;;;;;;;;;;;;;;;22.39;100.00;101511.41;5107468;28;20343;-45
2023/06/21 05:58:20;;;;;;;;;;;;;;;22.68;100.00;101507.59;5116111;27;19924;-44
2023/06/21 06:00:46;;;;;;;;;;;;;;;22.75;100.00;101519.72;5113297;27;19920;-45
2023/06/21 06:03:11;;;;;;;;;;;;;;;22.79;100.00;101516.19;5115695;27;20270;-46
2023/06/21 06:05:36;;;;;;;;;;;;;;;22.78;100.00;101521.47;5113387;28;19955;-46
2023/06/21 06:08:02;;;;;;;;;;;;;;;22.67;100.00;101530.31;5113984;27;19966;-44
2023/06/21 06:10:27;;;;;;;;;;;;;;;22.47;100.00;101537.53;5118976;27;19960;-47
2023/06/21 06:12:52;;;;;;;;;;;;;;;22.27;100.00;101532.50;5114924;27;19916;-44
2023/06/21 06:15:18;;;;;;;;;;;;;;;22.19;100.00;101532.56;5091314;28;19920;-43
2023/06/21 06:17:43;;;;;;;;;;;;;;;22.03;100.00;101536.19;5110408;27;19969;-46
2023/06/21 06:20:09;;;;;;;;;;;;;;;21.93;100.00;101537.13;5106360;28;20362;-44
2023/06/21 06:22:35;;;;;;;;;;;;;;;21.88;100.00;101538.91;5114172;27;19912;-46
2023/06/21 06:25:00;;;;;;;;;;;;;;;22.23;100.00;101537.78;5116233;27;20004;-44
2023/06/21 06:27:25;;;;;;;;;;;;;;;22.71;100.00;101539.88;5116160;27;19959;-44
2023/06/21 06:29:51;;;;;;;;;;;;;;;22.89;92.95;101545.84;5116258;27;19920;-42
2023/06/21 06:32:16;;;;;;;;;;;;;;;23.05;97.58;101547.38;5086072;28;19923;-45
2023/06/21 06:34:41;;;;;;;;;;;;;;;23.32;96.16;101556.66;5118327;27;19919;-44
2023/06/21 06:37:06;;;;;;;;;;;;;;;23.63;98.88;101553.63;5124899;27;19920;-45
2023/06/21 06:39:32;;;;;;;;;;;;;;;23.90;92.72;101563.66;5118708;27;19930;-43
2023/06/21 06:41:57;;;;;;;;;;;;;;;24.05;89.19;101565.19;5126033;27;19916;-46
2023/06/21 06:44:22;;;;;;;;;;;;;;;24.18;92.45;101571.13;5116105;27;20002;-46
2023/06/21 06:46:48;;;;;;;;;;;;;;;24.28;91.44;101572.69;5113203;28;19962;-49
2023/06/21 06:49:13;;;;;;;;;;;;;;;24.08;90.83;101576.50;5119355;27;19915;-46
2023/06/21 06:51:42;;;;;;;;;;;;;;;23.88;88.32;101581.22;5113495;27;19926;-45
2023/06/21 06:54:08;;;;;;;;;;;;;;;23.79;88.13;101579.63;5112538;27;19922;-44
2023/06/21 06:56:33;;;;;;;;;;;;;;;23.81;90.72;101585.72;5110660;27;20011;-43
2023/06/21 06:58:58;;;;;;;;;;;;;;;23.79;89.65;101589.25;5110254;28;19923;-56
2023/06/21 07:01:27;;;;;;;;;;;;;;;24.04;92.45;101597.63;5112409;27;19915;-56
2023/06/21 07:03:52;;;;;;;;;;;;;;;24.14;83.63;101600.94;5118821;27;20016;-57
2023/06/21 07:06:17;;;;;;;;;;;;;;;24.23;86.17;101601.69;5118684;27;19954;-56
2023/06/21 07:08:44;;;;;;;;;;;;;;;24.40;84.84;101609.31;5114967;27;20389;-56
2023/06/21 07:11:09;;;;;;;;;;;;;;;24.57;84.85;101606.38;5116463;27;19939;-56
2023/06/21 07:13:35;;;;;;;;;;;;;;;24.75;82.12;101606.03;5117540;27;19923;-56
2023/06/21 07:16:00;;;;;;;;;;;;;;;24.84;85.15;101600.59;5114047;27;20291;-56
2023/06/21 07:18:25;;;;;;;;;;;;;;;24.95;80.71;101605.66;5113991;27;19927;-56
2023/06/21 07:20:51;;;;;;;;;;;;;;;25.05;83.34;101601.97;5100444;27;20596;-56
2023/06/21 07:23:16;;;;;;;;;;;;;;;24.96;81.27;101607.38;5124159;27;20294;-55
2023/06/21 07:25:41;;;;;;;;;;;;;;;24.88;82.30;101614.56;5116608;27;19993;-56
2023/06/21 07:28:06;;;;;;;;;;;;;;;24.65;81.04;101608.88;5112255;27;19912;-56
2023/06/21 07:30:32;;;;;;;;;;;;;;;24.34;78.87;101612.06;5124287;27;19926;-56
2023/06/21 07:32:57;;;;;;;;;;;;;;;24.26;82.84;101606.00;5098204;28;20109;-57
2023/06/21 07:35:22;;;;;;;;;;;;;;;24.32;82.86;101612.03;5098696;28;19961;-56
2023/06/21 07:37:47;;;;;;;;;;;;;;;24.47;81.52;101610.06;5113143;27;20405;-55
2023/06/21 07:40:13;;;;;;;;;;;;;;;24.53;75.01;101615.22;5105846;28;20336;-56
2023/06/21 07:42:38;;;;;;;;;;;;;;;24.64;78.40;101604.50;5114764;27;19912;-56
2023/06/21 07:45:04;;;;;;;;;;;;;;;24.74;80.07;101608.69;5115109;27;20347;-56
2023/06/21 07:47:30;;;;;;;;;;;;;;;24.79;75.07;101612.97;5115726;27;20376;-56
2023/06/21 07:49:55;;;;;;;;;;;;;;;24.70;75.44;101618.41;5108100;27;20397;-54
2023/06/21 07:52:20;;;;;;;;;;;;;;;24.46;77.76;101621.50;5121502;27;20396;-55
2023/06/21 07:54:48;;;;;;;;;;;;;;;24.44;77.42;101616.22;5110817;28;20023;-54
2023/06/21 07:57:14;;;;;;;;;;;;;;;24.61;74.91;101616.81;5113472;27;19920;-56
2023/06/21 07:59:39;;;;;;;;;;;;;;;24.82;75.26;101619.94;5112057;27;19920;-56
2023/06/21 08:02:05;;;;;;;;;;;;;;;25.08;76.18;101625.59;5086290;27;20354;-54
2023/06/21 08:04:30;;;;;;;;;;;;;;;25.35;75.12;101624.13;5122270;27;20564;-56
2023/06/21 08:06:55;;;;;;;;;;;;;;;25.55;72.61;101622.88;5110164;28;19920;-55
2023/06/21 08:09:20;;;;;;;;;;;;;;;25.63;72.65;101627.06;5111144;28;19920;-55
2023/06/21 08:11:46;;;;;;;;;;;;;;;25.83;72.61;101631.03;5121152;27;20378;-57
2023/06/21 08:14:11;;;;;;;;;;;;;;;25.74;65.43;101632.13;5120140;27;20371;-56
2023/06/21 08:16:37;;;;;;;;;;;;;;;25.60;72.15;101628.88;5116853;27;20353;-56
2023/06/21 08:19:03;;;;;;;;;;;;;;;25.69;72.42;101628.69;5114049;27;19919;-56
2023/06/21 08:21:29;;;;;;;;;;;;;;;25.93;70.97;101633.41;5104521;28;19981;-55
2023/06/21 08:23:54;;;;;;;;;;;;;;;26.06;67.65;101636.63;5119527;27;19998;-56
2023/06/21 08:26:19;;;;;;;;;;;;;;;26.16;69.63;101635.50;5108822;27;19916;-56
2023/06/21 08:28:45;;;;;;;;;;;;;;;26.22;66.93;101634.50;5108585;28;20002;-55
2023/06/21 08:31:10;;;;;;;;;;;;;;;26.15;66.89;101635.56;5109765;27;19961;-55
2023/06/21 08:33:36;;;;;;;;;;;;;;;26.32;67.56;101641.25;5109147;28;19946;-55
2023/06/21 08:36:01;;;;;;;;;;;;;;;26.46;66.35;101633.91;5110699;28;19916;-55
2023/06/21 08:38:26;;;;;;;;;;;;;;;26.48;61.61;101635.63;5109152;28;19916;-54
2023/06/21 08:40:53;;;;;;;;;;;;;;;26.20;65.39;101639.78;5112252;27;19919;-55
2023/06/21 08:43:18;;;;;;;;;;;;;;;26.23;64.00;101641.50;5116935;27;19938;-55
2023/06/21 08:45:44;;;;;;;;;;;;;;;26.26;67.21;101638.75;5109871;28;20290;-55
2023/06/21 08:48:10;;;;;;;;;;;;;;;26.28;66.89;101641.38;5110456;28;19916;-56
2023/06/21 08:50:36;;;;;;;;;;;;;;;26.27;65.17;101634.34;5110257;27;19923;-55
2023/06/21 08:53:06;;;;;;;;;;;;;;;26.35;63.00;101643.81;5116296;27;20002;-55
2023/06/21 08:55:35;;;;;;;;;;;;;;;26.45;60.68;101653.28;5116707;27;19918;-56
2023/06/21 08:58:01;;;;;;;;;;;;;;;26.69;65.60;101643.84;5109649;28;19915;-56
2023/06/21 09:00:29;;;;;;;;;;;;;;;26.81;60.10;101647.06;5109665;28;19987;-55
2023/06/21 09:03:03;;;;;;;;;;;;;;;26.81;61.01;101644.41;5104269;28;20073;-56
2023/06/21 09:05:33;;;;;;;;;;;;;;;26.89;55.24;101651.22;5100745;28;19923;-56
2023/06/21 09:07:59;;;;;;;;;;;;;;;26.75;60.83;101656.00;5103410;27;20403;-56
2023/06/21 09:10:26;;;;;;;;;;;;;;;26.77;56.66;101646.28;5110042;28;19916;-56
2023/06/21 09:12:53;;;;;;;;;;;;;;;26.70;57.93;101650.88;5102870;28;19915;-54
2023/06/21 09:15:19;;;;;;;;;;;;;;;26.77;61.13;101648.06;5112331;28;19943;-58
2023/06/21 09:17:45;;;;;;;;;;;;;;;26.75;55.38;101645.44;5121160;27;19919;-54
2023/06/21 09:20:11;;;;;;;;;;;;;;;26.64;58.87;101653.66;5117238;28;19915;-43
2023/06/21 09:22:36;;;;;;;;;;;;;;;26.58;58.36;101655.59;5115335;28;20356;-44
2023/06/21 09:25:02;;;;;;;;;;;;;;;26.58;54.96;101661.75;5105450;28;20370;-45
2023/06/21 09:27:27;;;;;;;;;;;;;;;26.56;57.06;101666.16;5124561;28;19915;-44
2023/06/21 09:29:53;;;;;;;;;;;;;;;26.61;55.33;101668.69;5114866;28;20336;-44
2023/06/21 09:32:18;;;;;;;;;;;;;;;26.61;58.58;101664.28;5111715;27;20321;-43
2023/06/21 09:34:43;;;;;;;;;;;;;;;26.46;55.54;101667.31;5113212;28;19916;-45
2023/06/21 09:37:08;;;;;;;;;;;;;;;26.30;56.16;101668.56;5117402;27;20007;-46
2023/06/21 09:39:34;;;;;;;;;;;;;;;26.21;56.05;101667.03;5115275;27;19916;-47
2023/06/21 09:41:59;;;;;;;;;;;;;;;26.19;57.66;101664.41;5114870;27;19951;-46
2023/06/21 09:44:24;;;;;;;;;;;;;;;26.10;55.89;101669.91;5094653;28;19916;-47
2023/06/21 09:46:57;;;;;;;;;;;;;;;25.92;58.25;101667.72;5112198;27;20340;-45
2023/06/21 09:49:26;;;;;;;;;;;;;;;25.97;57.05;101676.38;5115288;27;20293;-46
2023/06/21 09:51:51;;;;;;;;;;;;;;;26.13;58.40;101677.75;5110784;27;20892;-44
2023/06/21 09:54:16;;;;;;;;;;;;;;;26.17;54.22;101675.91;5117972;27;20342;-45
2023/06/21 09:56:42;;;;;;;;;;;;;;;26.22;54.69;101670.53;5110665;28;19916;-43
2023/06/21 09:59:18;;;;;;;;;;;;;;;26.36;54.95;101677.19;5121469;27;19977;-48
2023/06/21 10:01:47;;;;;;;;;;;;;;;26.49;57.23;101671.66;5121154;27;19926;-44
2023/06/21 10:04:14;;;;;;;;;;;;;;;26.54;53.10;101675.91;5117833;27;19911;-46
2023/06/21 10:06:48;;;;;;;;;;;;;;;26.46;52.09;101672.59;5110416;27;20024;-44
2023/06/21 10:09:14;;;;;;;;;;;;;;;26.29;53.12;101674.75;5109546;28;19919;-44
2023/06/21 10:11:43;;;;;;;;;;;;;;;26.19;54.14;101676.72;5118958;27;19916;-44
2023/06/21 10:14:16;;;;;;;;;;;;;;;26.01;54.95;101682.44;5110269;27;19961;-46
2023/06/21 10:16:42;;;;;;;;;;;;;;;25.69;55.63;101686.63;5120744;27;19912;-44
2023/06/21 10:19:08;;;;;;;;;;;;;;;25.48;57.70;101690.59;5122676;27;19924;-45
2023/06/21 10:21:34;;;;;;;;;;;;;;;25.50;57.50;101688.78;5119786;27;20439;-48
2023/06/21 10:24:00;;;;;;;;;;;;;;;25.35;57.01;101695.22;5114359;27;19922;-45
2023/06/21 10:26:26;;;;;;;;;;;;;;;25.32;58.72;101697.94;5112472;28;19916;-45
2023/06/21 10:28:55;;;;;;;;;;;;;;;25.29;58.90;101707.63;5107124;27;19916;-48
2023/06/21 10:31:21;;;;;;;;;;;;;;;25.28;55.44;101704.13;5108445;27;19920;-44
2023/06/21 10:33:47;;;;;;;;;;;;;;;25.44;56.19;101712.63;5102729;28;19983;-44
2023/06/21 10:36:16;;;;;;;;;;;;;;;25.51;53.89;101716.00;5112668;28;19928;-46
2023/06/21 10:38:41;;;;;;;;;;;;;;;25.51;53.50;101723.88;5106725;27;20379;-44
2023/06/21 10:41:08;;;;;;;;;;;;;;;25.62;51.41;101716.63;5112098;27;20022;-46
2023/06/21 10:43:34;;;;;;;;;;;;;;;25.58;51.47;101725.50;5101331;27;19916;-45
2023/06/21 10:46:00;;;;;;;;;;;;;;;25.60;51.79;101721.94;5107457;27;19919;-45
2023/06/21 10:48:26;;;;;;;;;;;;;;;25.70;52.83;101719.97;5116056;27;19912;-45
2023/06/21 10:50:52;;;;;;;;;;;;;;;25.91;52.54;101714.28;5113606;27;19919;-43
2023/06/21 10:53:18;;;;;;;;;;;;;;;26.08;52.48;101726.19;5117063;27;19915;-47
2023/06/21 10:55:43;;;;;;;;;;;;;;;26.35;52.50;101722.06;5114223;27;20340;-44
2023/06/21 10:58:10;;;;;;;;;;;;;;;26.69;50.61;101730.03;5122202;27;20432;-43
2023/06/21 11:00:35;;;;;;;;;;;;;;;26.98;50.12;101724.88;5120370;27;19912;-46
2023/06/21 11:03:00;;;;;;;;;;;;;;;27.19;48.54;101728.75;5117084;27;19938;-44
2023/06/21 11:05:26;;;;;;;;;;;;;;;27.16;46.92;101726.19;5105957;27;19915;-43
2023/06/21 11:07:59;;;;;;;;;;;;;;;27.13;47.57;101728.91;5100269;27;20062;-44
2023/06/21 11:10:43;;;;;;;;;;;;;;;27.13;49.05;101725.41;5111522;27;19922;-47
2023/06/21 11:13:09;;;;;;;;;;;;;;;27.04;48.60;101725.63;5092900;28;19959;-45
2023/06/21 11:15:38;;;;;;;;;;;;;;;26.95;48.58;101732.00;5111928;27;19985;-47
2023/06/21 11:18:05;;;;;;;;;;;;;;;26.86;50.70;101735.75;5116964;27;19968;-45
2023/06/21 11:20:42;;;;;;;;;;;;;;;26.56;50.68;101726.84;5123267;27;19915;-45
2023/06/21 11:23:08;;;;;;;;;;;;;;;26.34;50.75;101731.75;5121186;27;20016;-43
2023/06/21 11:25:36;;;;;;;;;;;;;;;26.31;52.43;101725.66;5117236;27;19966;-45
2023/06/21 11:28:13;;;;;;;;;;;;;;;26.24;51.62;101729.34;5108870;27;19916;-48
2023/06/21 11:30:39;;;;;;;;;;;;;;;26.26;53.42;101730.16;5110309;27;19923;-46
2023/06/21 11:33:17;;;;;;;;;;;;;;;26.27;51.98;101735.44;5106960;28;19924;-48
2023/06/21 11:35:51;;;;;;;;;;;;;;;26.35;51.97;101730.84;5117793;27;19919;-57
2023/06/21 11:38:17;;;;;;;;;;;;;;;26.32;52.66;101724.75;5111173;28;20019;-56
2023/06/21 11:40:43;;;;;;;;;;;;;;;26.17;51.24;101721.59;5117215;27;19977;-57
2023/06/21 11:43:14;;;;;;;;;;;;;;;25.96;53.71;101729.97;5111208;27;19912;-56
2023/06/21 11:45:40;;;;;;;;;;;;;;;25.99;50.97;101727.28;5112444;27;19999;-57
2023/06/21 11:48:12;;;;;;;;;;;;;;;25.90;51.89;101728.34;5111514;27;19962;-57
2023/06/21 11:50:40;;;;;;;;;;;;;;;25.77;51.96;101742.69;5112683;27;19919;-56
2023/06/21 11:53:13;;;;;;;;;;;;;;;25.77;52.77;101737.41;5115158;27;20326;-58
2023/06/21 11:55:38;;;;;;;;;;;;;;;26.03;52.42;101734.22;5105147;28;19961;-57
2023/06/21 11:58:06;;;;;;;;;;;;;;;26.42;51.57;101732.44;5112778;27;19924;-57
2023/06/21 12:00:31;;;;;;;;;;;;;;;26.60;50.74;101738.19;5123104;27;20331;-57
2023/06/21 12:03:01;;;;;;;;;;;;;;;26.51;49.78;101739.25;5110887;27;20231;-57
2023/06/21 12:05:26;;;;;;;;;;;;;;;26.57;50.11;101735.59;5093339;28;19920;-57
2023/06/21 12:07:51;;;;;;;;;;;;;;;26.82;50.83;101746.44;5110285;27;19923;-57
2023/06/21 12:10:16;;;;;;;;;;;;;;;27.05;47.60;101736.13;5117217;27;19924;-57
2023/06/21 12:12:43;;;;;;;;;;;;;;;27.29;48.75;101733.75;5110234;27;19967;-57
2023/06/21 12:15:08;;;;;;;;;;;;;;;27.54;47.69;101737.44;5108705;27;19912;-57
2023/06/21 12:17:33;;;;;;;;;;;;;;;27.65;45.16;101738.00;5108084;27;19924;-56
2023/06/21 12:20:04;;;;;;;;;;;;;;;27.60;46.25;101739.91;5100005;28;20370;-57
2023/06/21 12:22:30;;;;;;;;;;;;;;;27.60;48.00;101752.25;5100325;28;20331;-57
2023/06/21 12:24:55;;;;;;;;;;;;;;;27.57;45.90;101747.94;5100735;28;20426;-57
2023/06/21 12:27:20;;;;;;;;;;;;;;;27.53;48.20;101751.56;5096789;28;19931;-57